createdAt,value
2017-04-23T00:00:36.789Z,0
2017-04-23T00:03:00.067Z,0
2017-04-23T00:05:14.958Z,0
2017-04-23T00:07:38.317Z,0
2017-04-23T00:10:01.705Z,0
2017-04-23T00:12:24.960Z,0
2017-04-23T00:14:48.309Z,0
2017-04-23T00:17:11.672Z,0
2017-04-23T00:19:35.032Z,0
2017-04-23T00:21:58.393Z,0
2017-04-23T00:24:21.802Z,0
2017-04-23T00:26:45.120Z,0
2017-04-23T00:29:08.378Z,0
2017-04-23T00:31:31.741Z,0
2017-04-23T00:33:55.106Z,0
2017-04-23T00:36:18.465Z,0
2017-04-23T00:38:42.480Z,0
2017-04-23T00:41:05.846Z,0
2017-04-23T00:43:29.080Z,0
2017-04-23T00:45:52.344Z,0
2017-04-23T00:48:15.600Z,0
2017-04-23T00:50:38.892Z,0
2017-04-23T00:53:02.254Z,0
2017-04-23T00:55:25.611Z,0
2017-04-23T00:57:40.576Z,0
2017-04-23T01:00:03.817Z,0
2017-04-23T01:02:27.097Z,0
2017-04-23T01:04:50.354Z,0
2017-04-23T01:07:13.628Z,0
2017-04-23T01:09:36.966Z,0
2017-04-23T01:12:00.242Z,0
2017-04-23T01:14:23.502Z,0
2017-04-23T01:16:46.771Z,0
2017-04-23T01:19:10.089Z,0
2017-04-23T01:21:35.965Z,0
2017-04-23T01:23:59.313Z,0
2017-04-23T01:26:22.601Z,0
2017-04-23T01:28:45.859Z,0
2017-04-23T01:31:09.222Z,0
2017-04-23T01:33:32.571Z,0
2017-04-23T01:35:55.841Z,0
2017-04-23T01:38:19.212Z,0
2017-04-23T01:40:42.583Z,0
2017-04-23T01:43:05.829Z,0
2017-04-23T01:45:30.142Z,0
2017-04-23T01:49:54.507Z,0
2017-04-23T01:52:17.760Z,0
2017-04-23T01:54:41.043Z,0
2017-04-23T01:57:05.344Z,0
2017-04-23T01:59:28.649Z,0
2017-04-23T02:01:52.040Z,0
2017-04-23T02:04:15.395Z,0
2017-04-23T02:06:38.734Z,0
2017-04-23T02:09:02.051Z,0
2017-04-23T02:11:25.920Z,0
2017-04-23T02:13:36.016Z,0
2017-04-23T02:15:59.349Z,0
2017-04-23T02:18:09.452Z,0
2017-04-23T02:20:32.764Z,0
2017-04-23T02:22:56.038Z,0
2017-04-23T02:25:19.300Z,0
2017-04-23T02:27:42.550Z,0
2017-04-23T02:30:05.819Z,0
2017-04-23T02:32:29.077Z,0
2017-04-23T02:36:28.608Z,0
2017-04-23T02:38:51.853Z,0
2017-04-23T02:41:15.116Z,0
2017-04-23T02:43:38.381Z,0
2017-04-23T02:46:01.650Z,0
2017-04-23T02:48:24.919Z,0
2017-04-23T02:50:48.177Z,0
2017-04-23T02:53:11.436Z,0
2017-04-23T02:55:34.695Z,0
2017-04-23T02:57:57.944Z,0
2017-04-23T03:00:12.836Z,0
2017-04-23T03:02:37.147Z,0
2017-04-23T03:05:00.462Z,0
2017-04-23T03:07:24.466Z,0
2017-04-23T03:09:47.705Z,0
2017-04-23T03:12:10.988Z,0
2017-04-23T03:14:34.238Z,0
2017-04-23T03:16:58.532Z,0
2017-04-23T03:19:21.799Z,0
2017-04-23T03:21:45.092Z,0
2017-04-23T03:24:08.318Z,0
2017-04-23T03:26:31.598Z,0
2017-04-23T03:28:54.840Z,0
2017-04-23T03:31:18.151Z,0
2017-04-23T03:33:27.788Z,0
2017-04-23T03:35:51.115Z,0
2017-04-23T03:38:16.321Z,0
2017-04-23T03:40:22.791Z,0
2017-04-23T03:42:46.039Z,0
2017-04-23T03:45:09.176Z,0
2017-04-23T03:49:33.461Z,0
2017-04-23T03:51:57.702Z,4
2017-04-23T03:54:21.004Z,0
2017-04-23T03:56:44.236Z,4
2017-04-23T03:58:59.099Z,4
2017-04-23T04:01:22.245Z,8
2017-04-23T04:03:45.520Z,8
2017-04-23T04:06:08.652Z,16
2017-04-23T04:08:31.869Z,20
2017-04-23T04:10:55.172Z,32
2017-04-23T04:13:10.047Z,44
2017-04-23T04:15:19.672Z,52
2017-04-23T04:17:42.959Z,72
2017-04-23T04:19:57.833Z,88
2017-04-23T04:22:07.892Z,108
2017-04-23T04:24:31.140Z,136
2017-04-23T04:26:56.621Z,168
2017-04-23T04:29:23.708Z,208
2017-04-23T04:31:46.976Z,248
2017-04-23T04:34:10.591Z,300
2017-04-23T04:36:33.691Z,352
2017-04-23T04:38:56.885Z,408
2017-04-23T04:41:20.126Z,460
2017-04-23T04:45:27.722Z,580
2017-04-23T04:47:51.002Z,644
2017-04-23T04:49:57.370Z,712
2017-04-23T04:52:12.228Z,784
2017-04-23T04:54:38.093Z,872
2017-04-23T04:57:01.310Z,1048
2017-04-23T05:00:51.932Z,1500
2017-04-23T05:05:16.771Z,1944
2017-04-23T05:07:40.276Z,2232
2017-04-23T05:10:03.888Z,2472
2017-04-23T05:12:19.145Z,2632
2017-04-23T05:14:42.888Z,2924
2017-04-23T05:16:53.263Z,2948
2017-04-23T05:19:17.259Z,3288
2017-04-23T05:21:41.413Z,3528
2017-04-23T05:26:06.937Z,3672
2017-04-23T05:28:31.338Z,3812
2017-04-23T05:30:55.769Z,4120
2017-04-23T05:33:20.263Z,4428
2017-04-23T05:35:36.384Z,4504
2017-04-23T05:38:01.115Z,4900
2017-04-23T05:40:25.952Z,5160
2017-04-23T05:42:50.996Z,5532
2017-04-23T05:45:16.008Z,5876
2017-04-23T05:47:41.016Z,6176
2017-04-23T05:50:06.161Z,6620
2017-04-23T05:52:31.405Z,7096
2017-04-23T05:54:57.356Z,7788
2017-04-23T05:57:22.761Z,8436
2017-04-23T06:01:52.610Z,10040
2017-04-23T06:04:18.275Z,10072
2017-04-23T06:08:29.279Z,44896
2017-04-23T06:10:55.130Z,52032
2017-04-23T06:15:24.092Z,51712
2017-04-23T06:17:49.969Z,57440
2017-04-23T06:20:07.368Z,51840
2017-04-23T06:22:33.433Z,60352
2017-04-23T06:24:59.479Z,64416
2017-04-23T06:27:25.640Z,70784
2017-04-23T06:29:51.835Z,70880
2017-04-23T06:32:17.846Z,64064
2017-04-23T06:34:43.981Z,76000
2017-04-23T06:37:10.172Z,71520
2017-04-23T06:39:36.460Z,76160
2017-04-23T06:42:02.685Z,69824
2017-04-23T06:44:28.938Z,68032
2017-04-23T06:46:55.118Z,75456
2017-04-23T06:49:12.716Z,74112
2017-04-23T06:53:41.225Z,78176
2017-04-23T06:56:07.222Z,81376
2017-04-23T06:58:33.112Z,83040
2017-04-23T07:00:50.506Z,78976
2017-04-23T07:04:53.913Z,81728
2017-04-23T07:07:20.017Z,60320
2017-04-23T07:09:46.033Z,18208
2017-04-23T07:12:12.217Z,11444
2017-04-23T07:14:38.270Z,12400
2017-04-23T07:17:04.479Z,44256
2017-04-23T07:19:30.734Z,64416
2017-04-23T07:21:56.963Z,63712
2017-04-23T07:24:23.286Z,14508
2017-04-23T07:26:49.634Z,14340
2017-04-23T07:29:15.858Z,15584
2017-04-23T07:31:42.073Z,16832
2017-04-23T07:36:10.005Z,20096
2017-04-23T07:38:35.911Z,13996
2017-04-23T07:41:01.675Z,12416
2017-04-23T07:43:18.770Z,12660
2017-04-23T07:45:44.269Z,13080
2017-04-23T07:48:09.638Z,14392
2017-04-23T07:50:34.981Z,14508
2017-04-23T07:53:00.131Z,14888
2017-04-23T07:55:16.836Z,15192
2017-04-23T07:57:41.977Z,17600
2017-04-23T08:00:07.064Z,22720
2017-04-23T08:02:32.150Z,22400
2017-04-23T08:04:57.152Z,21536
2017-04-23T08:07:22.199Z,19360
2017-04-23T08:09:47.165Z,21952
2017-04-23T08:12:12.152Z,18912
2017-04-23T08:14:37.144Z,15028
2017-04-23T08:17:02.187Z,13064
2017-04-23T08:19:27.152Z,12544
2017-04-23T08:21:52.117Z,13396
2017-04-23T08:24:17.163Z,12316
2017-04-23T08:28:20.527Z,13444
2017-04-23T08:30:45.580Z,13104
2017-04-23T08:33:02.191Z,11868
2017-04-23T08:35:27.275Z,12372
2017-04-23T08:37:53.124Z,11420
2017-04-23T08:40:18.234Z,9512
2017-04-23T08:42:46.023Z,9528
2017-04-23T08:45:11.102Z,9536
2017-04-23T08:47:36.213Z,8972
2017-04-23T08:50:01.279Z,4076
2017-04-23T08:52:26.293Z,4004
2017-04-23T08:54:51.214Z,4140
2017-04-23T08:57:15.915Z,4244
2017-04-23T08:59:40.596Z,4180
2017-04-23T09:02:05.287Z,7568
2017-04-23T09:04:29.868Z,8124
2017-04-23T09:06:54.475Z,4372
2017-04-23T09:09:19.023Z,5924
2017-04-23T09:11:43.475Z,4508
2017-04-23T09:13:59.558Z,4612
2017-04-23T09:18:25.500Z,4476
2017-04-23T09:22:51.374Z,4944
2017-04-23T09:25:15.886Z,4676
2017-04-23T09:27:40.396Z,4404
2017-04-23T09:30:04.774Z,4272
2017-04-23T09:32:29.137Z,4204
2017-04-23T09:34:53.523Z,4004
2017-04-23T09:37:09.352Z,3676
2017-04-23T09:39:33.728Z,4904
2017-04-23T09:41:57.953Z,3884
2017-04-23T09:44:22.180Z,3492
2017-04-23T09:46:46.322Z,3364
2017-04-23T09:49:10.515Z,3412
2017-04-23T09:51:34.718Z,3672
2017-04-23T09:53:58.860Z,3300
2017-04-23T09:56:23.057Z,5964
2017-04-23T09:58:47.238Z,3844
2017-04-23T10:01:11.428Z,3420
2017-04-23T10:03:27.189Z,3332
2017-04-23T10:05:51.435Z,3544
2017-04-23T10:08:15.698Z,4624
2017-04-23T10:10:39.874Z,3516
2017-04-23T10:13:04.032Z,3428
2017-04-23T10:15:28.231Z,3428
2017-04-23T10:17:52.412Z,3280
2017-04-23T10:20:16.615Z,3192
2017-04-23T10:22:40.821Z,2964
2017-04-23T10:25:04.952Z,2928
2017-04-23T10:27:29.137Z,2828
2017-04-23T10:29:53.224Z,2704
2017-04-23T10:32:17.333Z,4284
2017-04-23T10:34:41.381Z,4424
2017-04-23T10:37:05.486Z,4236
2017-04-23T10:39:29.660Z,3632
2017-04-23T10:41:53.853Z,4688
2017-04-23T10:44:18.023Z,4696
2017-04-23T10:46:42.235Z,4688
2017-04-23T10:49:06.407Z,4676
2017-04-23T10:51:30.617Z,4552
2017-04-23T10:53:54.776Z,2972
2017-04-23T10:56:18.970Z,3008
2017-04-23T10:58:43.152Z,2932
2017-04-23T11:01:07.402Z,2884
2017-04-23T11:03:31.559Z,2908
2017-04-23T11:05:55.609Z,3112
2017-04-23T11:08:19.769Z,3452
2017-04-23T11:10:43.851Z,4276
2017-04-23T11:13:07.920Z,4412
2017-04-23T11:15:23.651Z,3612
2017-04-23T11:17:47.809Z,3944
2017-04-23T11:20:12.100Z,3580
2017-04-23T11:22:27.811Z,4056
2017-04-23T11:24:54.100Z,3248
2017-04-23T11:29:20.116Z,3288
2017-04-23T11:31:44.262Z,3060
2017-04-23T11:34:08.480Z,2476
2017-04-23T11:36:32.519Z,2376
2017-04-23T11:38:56.573Z,3140
2017-04-23T11:41:20.743Z,3200
2017-04-23T11:43:44.885Z,3232
2017-04-23T11:46:08.922Z,3320
2017-04-23T11:48:33.084Z,3404
2017-04-23T11:50:57.159Z,3512
2017-04-23T11:53:21.316Z,3488
2017-04-23T11:55:45.460Z,3588
2017-04-23T11:58:09.519Z,3312
2017-04-23T12:00:33.596Z,3292
2017-04-23T12:02:58.766Z,2796
2017-04-23T12:05:22.926Z,2640
2017-04-23T12:07:47.119Z,2620
2017-04-23T12:10:11.193Z,2496
2017-04-23T12:12:35.381Z,2368
2017-04-23T12:14:59.437Z,2176
2017-04-23T12:17:23.498Z,2680
2017-04-23T12:19:47.627Z,2044
2017-04-23T12:22:11.548Z,2040
2017-04-23T12:24:35.508Z,1900
2017-04-23T12:26:59.390Z,1852
2017-04-23T12:29:23.173Z,1844
2017-04-23T12:31:46.977Z,1920
2017-04-23T12:34:10.761Z,2124
2017-04-23T12:36:26.119Z,2472
2017-04-23T12:38:49.969Z,2596
2017-04-23T12:41:13.749Z,2684
2017-04-23T12:43:37.591Z,2828
2017-04-23T12:46:01.433Z,2804
2017-04-23T12:48:25.300Z,2968
2017-04-23T12:50:49.155Z,3048
2017-04-23T12:53:13.040Z,2972
2017-04-23T12:55:28.539Z,2784
2017-04-23T12:57:52.375Z,2668
2017-04-23T13:00:16.250Z,2624
2017-04-23T13:02:40.128Z,2452
2017-04-23T13:05:04.021Z,2400
2017-04-23T13:07:27.934Z,2456
2017-04-23T13:09:51.888Z,2416
2017-04-23T13:12:15.816Z,2028
2017-04-23T13:14:39.752Z,1952
2017-04-23T13:17:03.708Z,2412
2017-04-23T13:19:19.125Z,2372
2017-04-23T13:21:43.025Z,2088
2017-04-23T13:24:06.920Z,1972
2017-04-23T13:26:30.805Z,1936
2017-04-23T13:28:54.699Z,1788
2017-04-23T13:31:18.581Z,1692
2017-04-23T13:33:29.035Z,2072
2017-04-23T13:35:52.892Z,1984
2017-04-23T13:38:08.304Z,2000
2017-04-23T13:40:32.153Z,2128
2017-04-23T13:42:47.564Z,2148
2017-04-23T13:45:11.362Z,2148
2017-04-23T13:47:35.185Z,2292
2017-04-23T13:49:59.042Z,2304
2017-04-23T13:52:22.872Z,2244
2017-04-23T13:54:46.690Z,2164
2017-04-23T13:57:10.551Z,2028
2017-04-23T13:59:34.418Z,1916
2017-04-23T14:01:58.274Z,1900
2017-04-23T14:04:22.122Z,1876
2017-04-23T14:06:45.901Z,1896
2017-04-23T14:09:09.713Z,1844
2017-04-23T14:11:33.517Z,1508
2017-04-23T14:13:57.389Z,1804
2017-04-23T14:16:21.910Z,1756
2017-04-23T14:18:45.700Z,1696
2017-04-23T14:21:09.488Z,1612
2017-04-23T14:23:33.301Z,1524
2017-04-23T14:25:57.164Z,1612
2017-04-23T14:28:21.072Z,1592
2017-04-23T14:30:44.928Z,1516
2017-04-23T14:33:08.749Z,1516
2017-04-23T14:35:24.328Z,1496
2017-04-23T14:37:48.104Z,1468
2017-04-23T14:40:11.981Z,1492
2017-04-23T14:42:36.775Z,1500
2017-04-23T14:45:00.585Z,1528
2017-04-23T14:47:24.385Z,1448
2017-04-23T14:49:48.213Z,1420
2017-04-23T14:52:11.953Z,1396
2017-04-23T14:54:35.732Z,1252
2017-04-23T14:56:59.484Z,1348
2017-04-23T14:59:23.175Z,1320
2017-04-23T15:01:46.899Z,1300
2017-04-23T15:04:10.611Z,1280
2017-04-23T15:06:34.342Z,1264
2017-04-23T15:08:58.081Z,1272
2017-04-23T15:11:22.008Z,1288
2017-04-23T15:13:45.728Z,1292
2017-04-23T15:16:09.441Z,1300
2017-04-23T15:18:33.306Z,1308
2017-04-23T15:20:57.002Z,1232
2017-04-23T15:23:20.801Z,1312
2017-04-23T15:25:44.571Z,1380
2017-04-23T15:28:08.318Z,1340
2017-04-23T15:30:32.098Z,1256
2017-04-23T15:32:42.873Z,1232
2017-04-23T15:35:06.650Z,1216
2017-04-23T15:37:21.990Z,1216
2017-04-23T15:39:45.777Z,1224
2017-04-23T15:42:24.321Z,1196
2017-04-23T15:44:39.697Z,1208
2017-04-23T15:47:03.519Z,1188
2017-04-23T15:49:18.851Z,1192
2017-04-23T15:51:42.589Z,1184
2017-04-23T15:54:06.356Z,1180
2017-04-23T15:56:30.064Z,1192
2017-04-23T15:58:53.853Z,1160
2017-04-23T16:01:20.595Z,1136
2017-04-23T16:03:30.343Z,1148
2017-04-23T16:05:54.072Z,1136
2017-04-23T16:08:17.744Z,1124
2017-04-23T16:10:41.532Z,1112
2017-04-23T16:12:56.831Z,1112
2017-04-23T16:17:21.799Z,1108
2017-04-23T16:19:45.505Z,1100
2017-04-23T16:22:09.279Z,1064
2017-04-23T16:24:32.943Z,1084
2017-04-23T16:26:59.367Z,1052
2017-04-23T16:29:23.052Z,1052
2017-04-23T16:31:47.649Z,1044
2017-04-23T16:34:11.320Z,1048
2017-04-23T16:36:35.303Z,1040
2017-04-23T16:38:58.982Z,1024
2017-04-23T16:41:22.637Z,1024
2017-04-23T16:43:46.213Z,1024
2017-04-23T16:46:09.852Z,1008
2017-04-23T16:48:33.514Z,972
2017-04-23T16:50:43.677Z,984
2017-04-23T16:53:14.251Z,976
2017-04-23T16:55:37.956Z,960
2017-04-23T16:58:01.718Z,956
2017-04-23T17:00:25.348Z,940
2017-04-23T17:04:25.358Z,928
2017-04-23T17:06:49.107Z,920
2017-04-23T17:09:12.808Z,912
2017-04-23T17:11:36.599Z,776
2017-04-23T17:14:00.171Z,864
2017-04-23T17:16:15.363Z,872
2017-04-23T17:18:39.057Z,840
2017-04-23T17:21:02.615Z,828
2017-04-23T17:23:26.210Z,812
2017-04-23T17:25:49.727Z,796
2017-04-23T17:28:13.386Z,776
2017-04-23T17:30:43.707Z,752
2017-04-23T17:33:07.334Z,728
2017-04-23T17:35:30.881Z,712
2017-04-23T17:37:54.423Z,688
2017-04-23T17:40:18.115Z,652
2017-04-23T17:42:41.681Z,636
2017-04-23T17:46:58.070Z,592
2017-04-23T17:49:21.678Z,560
2017-04-23T17:51:36.836Z,536
2017-04-23T17:54:00.434Z,504
2017-04-23T17:56:24.983Z,472
2017-04-23T17:58:40.109Z,444
2017-04-23T18:01:03.638Z,412
2017-04-23T18:03:27.191Z,372
2017-04-23T18:05:50.677Z,348
2017-04-23T18:08:14.237Z,316
2017-04-23T18:10:37.715Z,284
2017-04-23T18:13:01.270Z,252
2017-04-23T18:15:24.784Z,220
2017-04-23T18:17:48.303Z,192
2017-04-23T18:20:03.511Z,164
2017-04-23T18:22:27.727Z,136
2017-04-23T18:24:57.899Z,108
2017-04-23T18:27:12.956Z,88
2017-04-23T18:29:39.381Z,68
2017-04-23T18:32:09.473Z,52
2017-04-23T18:34:36.345Z,36
2017-04-23T18:37:09.774Z,28
2017-04-23T18:39:35.603Z,20
2017-04-23T18:41:59.147Z,12
2017-04-23T18:44:24.260Z,8
2017-04-23T18:46:47.698Z,4
2017-04-23T18:49:12.104Z,4
2017-04-23T18:51:35.580Z,0
2017-04-23T18:53:59.420Z,0
2017-04-23T18:56:23.060Z,0
2017-04-23T18:58:47.534Z,0
2017-04-23T19:04:27.450Z,0
2017-04-23T19:11:23.497Z,0
2017-04-23T19:13:47.239Z,0
2017-04-23T19:16:11.394Z,0
2017-04-23T19:18:34.995Z,0
2017-04-23T19:20:58.044Z,0
2017-04-23T19:23:22.415Z,0
2017-04-23T19:25:45.921Z,0
2017-04-23T19:28:09.435Z,0
2017-04-23T19:30:32.927Z,0
2017-04-23T19:34:23.809Z,0
2017-04-23T19:36:47.235Z,0
2017-04-23T19:39:10.699Z,0
2017-04-23T19:43:36.323Z,0
2017-04-23T19:45:59.801Z,0
2017-04-23T19:48:23.256Z,0
2017-04-23T19:50:46.687Z,0
2017-04-23T19:53:10.101Z,0
2017-04-23T19:55:33.548Z,0
2017-04-23T19:57:56.918Z,0
2017-04-23T20:01:56.455Z,0
2017-04-23T20:04:27.407Z,0
2017-04-23T20:07:06.303Z,0
2017-04-23T20:11:05.296Z,0
2017-04-23T20:15:04.523Z,0
2017-04-23T20:19:03.593Z,0
2017-04-23T20:21:33.985Z,0
2017-04-23T20:23:57.328Z,0
2017-04-23T20:26:27.539Z,0
2017-04-23T20:29:06.407Z,0
2017-04-23T20:31:30.905Z,0
2017-04-23T20:33:54.345Z,0
2017-04-23T20:36:17.752Z,0
2017-04-23T20:38:47.939Z,0
2017-04-23T20:41:11.358Z,0
2017-04-23T20:43:34.788Z,0
2017-04-23T20:46:05.000Z,0
2017-04-23T20:52:47.804Z,0
2017-04-23T20:55:12.222Z,0
2017-04-23T20:57:35.578Z,0
2017-04-23T21:00:05.751Z,0
2017-04-23T21:02:36.785Z,0
2017-04-23T21:05:06.803Z,0
2017-04-23T21:09:05.783Z,0
2017-04-23T21:11:29.194Z,0
2017-04-23T21:13:59.224Z,0
2017-04-23T21:16:23.615Z,0
2017-04-23T21:18:49.041Z,0
2017-04-23T21:23:06.048Z,0
2017-04-23T21:25:31.421Z,0
2017-04-23T21:27:56.746Z,0
2017-04-23T21:30:22.099Z,0
2017-04-23T21:32:45.544Z,0
2017-04-23T21:35:10.814Z,0
2017-04-23T21:37:35.104Z,0
2017-04-23T21:40:07.281Z,0
2017-04-23T21:42:16.950Z,0
2017-04-23T21:44:48.795Z,0
2017-04-23T21:47:27.835Z,0
2017-04-23T21:49:59.781Z,0
2017-04-23T21:52:29.800Z,0
2017-04-23T21:54:54.104Z,0
2017-04-23T21:57:19.410Z,0
2017-04-23T21:59:59.378Z,0
2017-04-23T22:02:23.647Z,0
2017-04-23T22:04:48.901Z,0
2017-04-23T22:07:12.160Z,0
2017-04-23T22:09:35.392Z,0
2017-04-23T22:12:05.338Z,0
2017-04-23T22:14:28.559Z,0
2017-04-23T22:17:00.325Z,0
2017-04-23T22:19:32.281Z,0
2017-04-23T22:22:04.355Z,0
2017-04-23T22:24:27.674Z,0
2017-04-23T22:26:50.923Z,0
2017-04-23T22:29:14.276Z,0
2017-04-23T22:31:38.534Z,0
2017-04-23T22:34:09.262Z,0
2017-04-23T22:36:39.302Z,0
2017-04-23T22:39:10.318Z,0
2017-04-23T22:41:33.576Z,0
2017-04-23T22:45:32.454Z,0
2017-04-23T22:48:01.926Z,0
2017-04-23T22:50:26.298Z,0
2017-04-23T22:52:49.526Z,0
2017-04-23T22:55:13.698Z,0
2017-04-23T22:57:51.821Z,0
2017-04-23T23:01:51.147Z,0
2017-04-23T23:05:42.119Z,0
2017-04-23T23:08:13.012Z,0
2017-04-23T23:12:11.919Z,0
2017-04-23T23:14:42.763Z,0
2017-04-23T23:17:07.985Z,0
2017-04-23T23:19:31.153Z,0
2017-04-23T23:22:01.288Z,0
2017-04-23T23:24:31.301Z,0
2017-04-23T23:27:01.313Z,0
2017-04-23T23:29:31.422Z,0
2017-04-23T23:31:41.473Z,0
2017-04-23T23:34:06.699Z,0
2017-04-23T23:36:37.480Z,0
2017-04-23T23:39:00.686Z,0
2017-04-23T23:41:24.870Z,0
2017-04-23T23:43:48.026Z,0
2017-04-23T23:46:25.978Z,0
2017-04-23T23:49:05.919Z,0
2017-04-23T23:51:35.917Z,0
2017-04-23T23:55:35.239Z,0
2017-04-23T23:58:07.197Z,0
